createdAt,value
2023-03-29T00:00:09.286Z,76.42
2023-03-29T00:00:41.128Z,76.56
2023-03-29T00:01:12.862Z,76.36
2023-03-29T00:02:04.626Z,75.24
2023-03-29T00:02:36.308Z,75.48
2023-03-29T00:03:08.482Z,75.07
2023-03-29T00:03:42.565Z,74.85
2023-03-29T00:04:15.983Z,75.16
2023-03-29T00:04:47.633Z,75.27
2023-03-29T00:05:25.380Z,75.17
2023-03-29T00:06:04.203Z,75.19
2023-03-29T00:06:36.020Z,75.41
2023-03-29T00:07:07.754Z,75.45
2023-03-29T00:07:39.398Z,75.39
2023-03-29T00:08:14.501Z,74.91
2023-03-29T00:08:46.294Z,74.82
2023-03-29T00:09:18.361Z,74.93
2023-03-29T00:09:49.963Z,74.78
2023-03-29T00:10:24.280Z,74.64
2023-03-29T00:10:57.085Z,74.71
2023-03-29T00:11:28.795Z,74.36
2023-03-29T00:12:01.781Z,74.63
2023-03-29T00:12:34.060Z,75.21
2023-03-29T00:13:05.924Z,75.18
2023-03-29T00:13:38.320Z,75.24
2023-03-29T00:14:10.232Z,75.01
2023-03-29T00:14:41.842Z,75.43
2023-03-29T00:15:13.770Z,75.27
2023-03-29T00:15:45.419Z,75.46
2023-03-29T00:16:17.875Z,75.79
2023-03-29T00:16:49.535Z,76.29
2023-03-29T00:17:21.218Z,77.09
2023-03-29T00:17:52.972Z,76.63
2023-03-29T00:18:24.689Z,76.72
2023-03-29T00:18:56.637Z,76.59
2023-03-29T00:19:29.136Z,76.84
2023-03-29T00:20:00.867Z,76.50
2023-03-29T00:20:32.450Z,76.49
2023-03-29T00:21:04.625Z,76.09
2023-03-29T00:21:36.306Z,75.76
2023-03-29T00:22:08.412Z,75.74
2023-03-29T00:22:42.236Z,75.92
2023-03-29T00:23:14.034Z,75.95
2023-03-29T00:23:45.869Z,76.35
2023-03-29T00:24:17.684Z,76.46
2023-03-29T00:24:49.466Z,76.38
2023-03-29T00:25:21.118Z,76.21
2023-03-29T00:25:56.494Z,76.14
2023-03-29T00:26:28.466Z,76.34
2023-03-29T00:27:00.479Z,76.42
2023-03-29T00:27:32.142Z,76.23
2023-03-29T00:28:03.995Z,76.24
2023-03-29T00:28:35.658Z,76.42
2023-03-29T00:29:07.237Z,76.78
2023-03-29T00:29:58.023Z,76.29
2023-03-29T00:30:29.775Z,75.97
2023-03-29T00:31:14.014Z,76.04
2023-03-29T00:31:51.448Z,76.26
2023-03-29T00:32:23.227Z,76.23
2023-03-29T00:32:55.036Z,76.17
2023-03-29T00:33:26.799Z,76.02
2023-03-29T00:33:58.423Z,76.21
2023-03-29T00:34:30.957Z,75.96
2023-03-29T00:35:02.672Z,75.74
2023-03-29T00:35:34.308Z,75.76
2023-03-29T00:36:07.522Z,75.86
2023-03-29T00:36:40.639Z,75.92
2023-03-29T00:37:14.929Z,76.37
2023-03-29T00:37:50.961Z,76.64
2023-03-29T00:38:22.763Z,76.29
2023-03-29T00:38:56.632Z,76.26
2023-03-29T00:39:29.833Z,75.93
2023-03-29T00:40:01.452Z,75.87
2023-03-29T00:40:34.405Z,76.13
2023-03-29T00:41:07.939Z,76.55
2023-03-29T00:41:39.519Z,77.18
2023-03-29T00:42:17.457Z,77.54
2023-03-29T00:42:49.104Z,77.83
2023-03-29T00:43:20.980Z,78.20
2023-03-29T00:44:01.005Z,78.58
2023-03-29T00:44:54.319Z,78.59
2023-03-29T00:45:30.497Z,78.51
2023-03-29T00:46:02.296Z,78.45
2023-03-29T00:46:35.051Z,78.50
2023-03-29T00:47:06.927Z,78.47
2023-03-29T00:47:44.549Z,78.13
2023-03-29T00:48:20.809Z,77.92
2023-03-29T00:48:53.970Z,77.61
2023-03-29T00:49:26.399Z,77.62
2023-03-29T00:50:03.004Z,77.69
2023-03-29T00:50:47.384Z,78.22
2023-03-29T00:51:21.748Z,77.34
2023-03-29T00:51:53.487Z,77.22
2023-03-29T00:52:30.172Z,77.45
2023-03-29T00:53:15.168Z,77.28
2023-03-29T00:53:53.253Z,77.40
2023-03-29T00:54:26.228Z,76.86
2023-03-29T00:55:01.754Z,76.73
2023-03-29T00:55:42.953Z,77.23
2023-03-29T00:56:24.264Z,77.44
2023-03-29T00:56:55.967Z,76.77
2023-03-29T00:57:30.143Z,76.99
2023-03-29T00:58:04.532Z,77.46
2023-03-29T00:58:47.992Z,78.05
2023-03-29T00:59:24.505Z,78.34
2023-03-29T00:59:58.003Z,78.19
2023-03-29T01:00:35.134Z,78.02
2023-03-29T01:01:17.583Z,77.73
2023-03-29T01:01:57.393Z,77.85
2023-03-29T01:02:35.032Z,77.81
2023-03-29T01:03:14.461Z,77.90
2023-03-29T01:03:54.504Z,78.35
2023-03-29T01:04:29.640Z,78.17
2023-03-29T01:05:20.223Z,78.80
2023-03-29T01:05:56.741Z,79.20
2023-03-29T01:06:29.672Z,79.43
2023-03-29T01:07:09.383Z,79.42
2023-03-29T01:07:48.394Z,79.63
2023-03-29T01:08:27.652Z,80.10
2023-03-29T01:09:03.050Z,79.90
2023-03-29T01:09:38.989Z,79.77
2023-03-29T01:10:14.667Z,79.25
2023-03-29T01:10:55.217Z,79.01
2023-03-29T01:11:45.827Z,79.18
2023-03-29T01:12:22.359Z,78.94
2023-03-29T01:13:01.547Z,79.03
2023-03-29T01:14:04.304Z,79.05
2023-03-29T01:14:45.384Z,79.59
2023-03-29T01:15:24.084Z,79.73
2023-03-29T01:15:57.885Z,79.60
2023-03-29T01:16:33.129Z,79.49
2023-03-29T01:17:05.853Z,79.48
2023-03-29T01:17:38.805Z,79.43
2023-03-29T01:18:10.764Z,79.50
2023-03-29T01:18:42.396Z,79.65
2023-03-29T01:19:17.717Z,79.65
2023-03-29T01:19:59.228Z,79.54
2023-03-29T01:20:55.657Z,79.61
2023-03-29T01:21:45.171Z,80.16
2023-03-29T01:22:45.680Z,80.43
2023-03-29T01:23:44.161Z,80.75
2023-03-29T01:24:44.809Z,80.88
2023-03-29T01:25:26.312Z,80.47
2023-03-29T01:26:11.381Z,81.52
2023-03-29T01:27:12.678Z,82.13
2023-03-29T01:28:06.422Z,82.17
2023-03-29T01:29:03.815Z,82.65
2023-03-29T01:30:01.178Z,81.01
2023-03-29T01:30:37.443Z,80.85
2023-03-29T01:31:15.597Z,81.35
2023-03-29T01:31:52.911Z,80.78
2023-03-29T01:32:48.153Z,80.41
2023-03-29T01:33:24.095Z,80.40
2023-03-29T01:34:22.082Z,80.96
2023-03-29T01:35:00.174Z,81.99
2023-03-29T01:35:45.467Z,82.50
2023-03-29T01:36:27.391Z,82.65
2023-03-29T01:37:57.931Z,82.15
2023-03-29T01:38:42.951Z,81.39
2023-03-29T01:39:14.577Z,81.36
2023-03-29T01:39:46.276Z,81.44
2023-03-29T01:40:17.985Z,81.65
2023-03-29T01:40:49.771Z,81.45
2023-03-29T01:41:23.063Z,81.40
2023-03-29T01:42:19.156Z,81.68
2023-03-29T01:43:03.175Z,81.36
2023-03-29T01:43:45.169Z,81.32
2023-03-29T01:44:28.718Z,81.40
2023-03-29T01:45:18.407Z,80.82
2023-03-29T01:46:05.171Z,80.68
2023-03-29T01:46:46.534Z,80.67
2023-03-29T01:47:55.780Z,81.23
2023-03-29T01:48:37.266Z,81.87
2023-03-29T01:49:20.292Z,81.61
2023-03-29T01:50:18.249Z,81.72
2023-03-29T01:50:55.989Z,81.95
2023-03-29T01:51:57.805Z,82.23
2023-03-29T01:52:35.917Z,82.60
2023-03-29T01:53:18.247Z,82.81
2023-03-29T01:54:05.474Z,83.02
2023-03-29T01:54:41.583Z,83.43
2023-03-29T01:55:18.550Z,83.39
2023-03-29T01:55:54.707Z,83.35
2023-03-29T01:56:29.254Z,83.45
2023-03-29T01:57:05.167Z,83.22
2023-03-29T01:57:40.820Z,83.28
2023-03-29T01:58:14.430Z,83.19
2023-03-29T01:58:51.331Z,83.14
2023-03-29T01:59:28.343Z,83.12
2023-03-29T02:00:00.747Z,83.29
2023-03-29T02:00:35.028Z,83.33
2023-03-29T02:01:10.532Z,83.69
2023-03-29T02:01:49.448Z,83.76
2023-03-29T02:02:23.508Z,84.02
2023-03-29T02:03:00.399Z,84.13
2023-03-29T02:03:34.093Z,84.04
2023-03-29T02:04:10.775Z,83.56
2023-03-29T02:04:50.197Z,83.75
2023-03-29T02:05:23.137Z,83.62
2023-03-29T02:05:56.476Z,83.65
2023-03-29T02:06:28.840Z,83.71
2023-03-29T02:07:02.880Z,83.70
2023-03-29T02:07:37.521Z,83.79
2023-03-29T02:08:12.789Z,83.87
2023-03-29T02:08:45.571Z,84.15
2023-03-29T02:09:17.944Z,83.92
2023-03-29T02:09:52.733Z,83.99
2023-03-29T02:10:24.678Z,84.00
2023-03-29T02:10:56.422Z,83.76
2023-03-29T02:11:29.468Z,83.66
2023-03-29T02:12:02.079Z,83.65
2023-03-29T02:12:34.240Z,84.02
2023-03-29T02:13:06.236Z,83.43
2023-03-29T02:13:38.015Z,83.22
2023-03-29T02:14:10.009Z,83.34
2023-03-29T02:14:41.624Z,83.18
2023-03-29T02:15:16.422Z,83.13
2023-03-29T02:15:48.473Z,83.20
2023-03-29T02:16:20.863Z,83.31
2023-03-29T02:16:52.667Z,83.87
2023-03-29T02:17:28.498Z,83.88
2023-03-29T02:18:00.408Z,84.31
2023-03-29T02:18:32.204Z,84.21
2023-03-29T02:19:04.143Z,84.57
2023-03-29T02:19:36.284Z,84.46
2023-03-29T02:20:17.360Z,84.58
2023-03-29T02:20:50.896Z,84.63
2023-03-29T02:21:36.300Z,84.39
2023-03-29T02:22:10.448Z,84.68
2023-03-29T02:22:50.267Z,84.28
2023-03-29T02:23:45.621Z,84.21
2023-03-29T02:24:19.355Z,84.28
2023-03-29T02:24:54.663Z,84.53
2023-03-29T02:25:26.428Z,84.57
2023-03-29T02:25:58.845Z,84.72
2023-03-29T02:26:30.846Z,84.78
2023-03-29T02:27:03.121Z,85.28
2023-03-29T02:27:35.125Z,85.34
2023-03-29T02:28:07.587Z,85.39
2023-03-29T02:28:39.204Z,85.08
2023-03-29T02:29:11.135Z,85.14
2023-03-29T02:29:42.951Z,84.68
2023-03-29T02:30:18.531Z,84.37
2023-03-29T02:30:55.792Z,84.47
2023-03-29T02:31:30.410Z,84.63
2023-03-29T02:32:39.758Z,85.06
2023-03-29T02:33:18.426Z,85.20
2023-03-29T02:33:53.378Z,84.92
2023-03-29T02:34:50.300Z,85.24
2023-03-29T02:35:38.631Z,85.83
2023-03-29T02:36:14.880Z,86.21
2023-03-29T02:36:50.531Z,85.65
2023-03-29T02:37:26.683Z,85.24
2023-03-29T02:38:00.154Z,85.19
2023-03-29T02:38:32.805Z,85.42
2023-03-29T02:39:05.898Z,85.29
2023-03-29T02:39:38.706Z,85.84
2023-03-29T02:40:13.115Z,85.87
2023-03-29T02:40:46.868Z,85.69
2023-03-29T02:41:19.085Z,85.49
2023-03-29T02:41:52.124Z,86.04
2023-03-29T02:42:25.640Z,85.74
2023-03-29T02:42:59.287Z,85.70
2023-03-29T02:43:32.754Z,85.88
2023-03-29T02:44:08.294Z,85.71
2023-03-29T02:44:41.995Z,85.49
2023-03-29T02:45:17.339Z,85.15
2023-03-29T02:45:50.536Z,85.01
2023-03-29T02:46:22.508Z,84.89
2023-03-29T02:46:58.108Z,84.81
2023-03-29T02:47:37.220Z,84.71
2023-03-29T02:48:12.485Z,84.71
2023-03-29T02:48:47.574Z,84.87
2023-03-29T02:49:19.398Z,84.50
2023-03-29T02:49:51.207Z,84.59
2023-03-29T02:50:25.246Z,84.49
2023-03-29T02:51:01.287Z,84.36
2023-03-29T02:51:35.506Z,84.66
2023-03-29T02:52:12.786Z,84.49
2023-03-29T02:52:53.191Z,84.25
2023-03-29T02:53:32.450Z,83.99
2023-03-29T02:54:15.619Z,83.84
2023-03-29T02:54:51.374Z,83.90
2023-03-29T02:55:26.012Z,83.90
2023-03-29T02:55:57.911Z,83.74
2023-03-29T02:56:29.833Z,83.64
2023-03-29T02:57:06.866Z,83.71
2023-03-29T02:57:39.519Z,83.94
2023-03-29T02:58:13.557Z,84.08
2023-03-29T02:58:45.183Z,84.18
2023-03-29T02:59:22.681Z,84.14
2023-03-29T02:59:57.027Z,84.17
2023-03-29T03:00:28.842Z,84.56
2023-03-29T03:01:02.307Z,85.25
2023-03-29T03:01:34.384Z,85.38
2023-03-29T03:02:05.995Z,85.38
2023-03-29T03:02:38.688Z,85.50
2023-03-29T03:03:12.304Z,85.34
2023-03-29T03:03:45.304Z,85.31
2023-03-29T03:04:18.576Z,85.89
2023-03-29T03:04:50.152Z,86.65
2023-03-29T03:05:21.833Z,86.96
2023-03-29T03:05:53.951Z,86.93
2023-03-29T03:06:25.556Z,86.90
2023-03-29T03:06:57.699Z,86.58
2023-03-29T03:07:29.778Z,86.72
2023-03-29T03:08:02.661Z,86.82
2023-03-29T03:08:34.233Z,86.91
2023-03-29T03:09:06.842Z,86.95
2023-03-29T03:09:38.499Z,87.07
2023-03-29T03:10:10.534Z,87.18
2023-03-29T03:10:42.180Z,87.22
2023-03-29T03:11:15.318Z,87.35
2023-03-29T03:11:47.062Z,87.09
2023-03-29T03:12:18.632Z,86.78
2023-03-29T03:12:50.408Z,87.19
2023-03-29T03:13:22.027Z,87.24
2023-03-29T03:13:53.663Z,87.17
2023-03-29T03:14:25.368Z,87.44
2023-03-29T03:14:56.955Z,87.63
2023-03-29T03:15:28.657Z,87.68
2023-03-29T03:16:01.287Z,87.74
2023-03-29T03:16:33.072Z,87.83
2023-03-29T03:17:04.961Z,87.88
2023-03-29T03:17:40.245Z,88.08
2023-03-29T03:18:13.072Z,87.94
2023-03-29T03:18:46.026Z,87.77
2023-03-29T03:19:17.923Z,87.73
2023-03-29T03:19:49.668Z,87.45
2023-03-29T03:20:24.132Z,87.03
2023-03-29T03:21:01.912Z,86.95
2023-03-29T03:21:35.333Z,87.18
2023-03-29T03:22:07.804Z,87.40
2023-03-29T03:22:45.729Z,87.17
2023-03-29T03:23:17.776Z,86.68
2023-03-29T03:23:49.463Z,86.13
2023-03-29T03:24:21.104Z,85.89
2023-03-29T03:24:52.711Z,85.84
2023-03-29T03:25:24.447Z,85.86
2023-03-29T03:25:56.679Z,85.98
2023-03-29T03:26:30.185Z,85.89
2023-03-29T03:27:02.001Z,85.72
2023-03-29T03:27:34.105Z,85.67
2023-03-29T03:28:05.932Z,85.93
2023-03-29T03:28:37.794Z,86.21
2023-03-29T03:29:09.790Z,86.23
2023-03-29T03:29:41.613Z,86.21
2023-03-29T03:30:13.493Z,86.29
2023-03-29T03:30:45.212Z,86.87
2023-03-29T03:31:17.688Z,87.43
2023-03-29T03:31:50.347Z,88.12
2023-03-29T03:32:23.929Z,88.10
2023-03-29T03:32:55.676Z,87.59
2023-03-29T03:33:28.375Z,86.99
2023-03-29T03:34:00.102Z,86.71
2023-03-29T03:34:31.741Z,86.46
2023-03-29T03:35:05.668Z,86.45
2023-03-29T03:35:38.746Z,86.48
2023-03-29T03:36:11.446Z,86.40
2023-03-29T03:36:43.159Z,86.40
2023-03-29T03:37:15.558Z,86.66
2023-03-29T03:37:47.181Z,86.79
2023-03-29T03:38:18.916Z,86.78
2023-03-29T03:38:50.720Z,86.87
2023-03-29T03:39:22.974Z,86.81
2023-03-29T03:39:54.941Z,86.96
2023-03-29T03:40:28.259Z,87.31
2023-03-29T03:41:01.579Z,87.31
2023-03-29T03:41:34.704Z,87.40
2023-03-29T03:42:08.446Z,87.55
2023-03-29T03:42:41.323Z,87.23
2023-03-29T03:43:13.163Z,87.01
2023-03-29T03:43:48.860Z,86.86
2023-03-29T03:44:20.559Z,86.44
2023-03-29T03:44:52.184Z,86.37
2023-03-29T03:45:24.808Z,86.41
2023-03-29T03:45:56.694Z,86.41
2023-03-29T03:46:29.638Z,86.40
2023-03-29T03:47:01.518Z,86.42
2023-03-29T03:47:33.210Z,86.48
2023-03-29T03:48:05.101Z,86.40
2023-03-29T03:48:37.348Z,86.39
2023-03-29T03:49:09.009Z,86.41
2023-03-29T03:49:41.147Z,86.54
2023-03-29T03:50:13.788Z,86.70
2023-03-29T03:50:50.532Z,86.57
2023-03-29T03:51:22.396Z,86.50
2023-03-29T03:51:54.201Z,86.47
2023-03-29T03:52:26.316Z,86.47
2023-03-29T03:52:57.917Z,86.82
2023-03-29T03:53:29.576Z,87.25
2023-03-29T03:54:01.199Z,87.00
2023-03-29T03:54:33.400Z,86.82
2023-03-29T03:55:05.483Z,87.02
2023-03-29T03:55:37.051Z,87.23
2023-03-29T03:56:09.337Z,87.45
2023-03-29T03:56:41.003Z,87.75
2023-03-29T03:57:12.860Z,87.54
2023-03-29T03:57:44.753Z,87.19
2023-03-29T03:58:17.561Z,87.21
2023-03-29T03:58:49.204Z,87.45
2023-03-29T03:59:21.021Z,87.84
2023-03-29T03:59:52.969Z,88.11
2023-03-29T04:00:24.822Z,87.94
2023-03-29T04:00:56.552Z,87.90
2023-03-29T04:01:28.179Z,87.93
2023-03-29T04:02:00.371Z,87.90
2023-03-29T04:02:32.870Z,87.95
2023-03-29T04:03:06.147Z,87.98
2023-03-29T04:03:39.255Z,88.14
2023-03-29T04:04:11.623Z,88.24
2023-03-29T04:04:43.210Z,88.08
2023-03-29T04:05:16.418Z,88.39
2023-03-29T04:05:48.930Z,88.71
2023-03-29T04:06:20.752Z,88.81
2023-03-29T04:06:52.906Z,88.43
2023-03-29T04:07:25.427Z,88.29
2023-03-29T04:07:57.213Z,87.98
2023-03-29T04:08:28.852Z,87.62
2023-03-29T04:09:00.424Z,87.24
2023-03-29T04:09:34.081Z,87.14
2023-03-29T04:10:06.586Z,86.97
2023-03-29T04:10:38.567Z,86.87
2023-03-29T04:11:10.659Z,87.44
2023-03-29T04:11:42.417Z,87.86
2023-03-29T04:12:14.106Z,87.90
2023-03-29T04:12:45.661Z,87.73
2023-03-29T04:13:17.346Z,87.88
2023-03-29T04:13:48.949Z,87.82
2023-03-29T04:14:20.726Z,87.75
2023-03-29T04:14:52.455Z,88.53
2023-03-29T04:15:24.277Z,89.01
2023-03-29T04:15:58.222Z,89.33
2023-03-29T04:16:31.910Z,88.69
2023-03-29T04:17:03.475Z,88.57
2023-03-29T04:17:35.867Z,88.32
2023-03-29T04:18:07.785Z,88.48
2023-03-29T04:18:39.672Z,88.52
2023-03-29T04:19:11.798Z,88.61
2023-03-29T04:19:43.451Z,88.92
2023-03-29T04:20:15.178Z,88.68
2023-03-29T04:20:47.864Z,88.11
2023-03-29T04:21:21.327Z,88.57
2023-03-29T04:21:53.381Z,88.63
2023-03-29T04:22:28.562Z,88.72
2023-03-29T04:23:00.199Z,88.78
2023-03-29T04:23:31.809Z,88.51
2023-03-29T04:24:03.586Z,88.46
2023-03-29T04:24:35.272Z,88.78
2023-03-29T04:25:08.273Z,88.74
2023-03-29T04:25:40.751Z,88.98
2023-03-29T04:26:13.756Z,89.18
2023-03-29T04:26:45.386Z,89.41
2023-03-29T04:27:17.356Z,89.32
2023-03-29T04:27:51.799Z,88.98
2023-03-29T04:28:23.610Z,89.09
2023-03-29T04:28:55.382Z,88.65
2023-03-29T04:29:27.048Z,88.22
2023-03-29T04:29:58.630Z,88.32
2023-03-29T04:30:30.476Z,88.69
2023-03-29T04:31:02.473Z,88.66
2023-03-29T04:31:34.416Z,88.36
2023-03-29T04:32:06.114Z,88.45
2023-03-29T04:32:38.135Z,88.44
2023-03-29T04:33:10.381Z,88.41
2023-03-29T04:33:42.577Z,88.77
2023-03-29T04:34:14.263Z,88.89
2023-03-29T04:34:45.955Z,88.56
2023-03-29T04:35:18.079Z,88.33
2023-03-29T04:35:49.838Z,88.16
2023-03-29T04:36:21.652Z,87.84
2023-03-29T04:36:53.343Z,87.26
2023-03-29T04:37:25.031Z,87.15
2023-03-29T04:37:56.620Z,87.11
2023-03-29T04:38:28.224Z,86.95
2023-03-29T04:39:01.843Z,86.92
2023-03-29T04:39:34.395Z,87.04
2023-03-29T04:40:09.844Z,86.99
2023-03-29T04:40:42.164Z,86.90
2023-03-29T04:41:15.469Z,87.17
2023-03-29T04:41:47.482Z,87.27
2023-03-29T04:42:19.224Z,87.35
2023-03-29T04:42:51.791Z,87.55
2023-03-29T04:43:23.760Z,87.30
2023-03-29T04:43:56.267Z,87.43
2023-03-29T04:44:28.162Z,87.75
2023-03-29T04:45:01.081Z,87.36
2023-03-29T04:45:32.786Z,86.88
2023-03-29T04:46:07.387Z,86.53
2023-03-29T04:46:40.385Z,86.36
2023-03-29T04:47:13.358Z,86.10
2023-03-29T04:47:45.905Z,85.93
2023-03-29T04:48:17.555Z,86.21
2023-03-29T04:48:49.163Z,86.50
2023-03-29T04:49:20.761Z,86.43
2023-03-29T04:49:52.472Z,86.64
2023-03-29T04:50:24.054Z,87.29
2023-03-29T04:50:55.805Z,86.92
2023-03-29T04:51:27.557Z,86.67
2023-03-29T04:52:00.970Z,86.93
2023-03-29T04:52:33.455Z,87.22
2023-03-29T04:53:05.998Z,87.12
2023-03-29T04:53:37.776Z,87.13
2023-03-29T04:54:09.593Z,87.11
2023-03-29T04:54:41.211Z,86.95
2023-03-29T04:55:13.032Z,86.90
2023-03-29T04:55:47.001Z,87.43
2023-03-29T04:56:18.783Z,87.08
2023-03-29T04:56:52.256Z,86.97
2023-03-29T04:57:24.022Z,86.92
2023-03-29T04:57:55.822Z,86.91
2023-03-29T04:58:32.064Z,86.81
2023-03-29T04:59:04.405Z,86.98
2023-03-29T04:59:36.436Z,86.84
2023-03-29T05:00:15.418Z,86.84
2023-03-29T05:00:47.303Z,87.28
2023-03-29T05:01:19.850Z,87.28
2023-03-29T05:01:51.765Z,87.32
2023-03-29T05:02:23.787Z,87.06
2023-03-29T05:02:55.545Z,87.24
2023-03-29T05:03:27.315Z,86.90
2023-03-29T05:03:59.024Z,86.82
2023-03-29T05:04:32.606Z,86.86
2023-03-29T05:05:04.589Z,87.01
2023-03-29T05:05:36.222Z,87.10
2023-03-29T05:06:10.720Z,87.22
2023-03-29T05:06:42.359Z,86.95
2023-03-29T05:07:15.452Z,87.05
2023-03-29T05:07:47.132Z,87.21
2023-03-29T05:08:18.896Z,87.27
2023-03-29T05:08:51.347Z,87.39
2023-03-29T05:09:24.059Z,87.74
2023-03-29T05:09:55.938Z,87.50
2023-03-29T05:10:27.562Z,87.36
2023-03-29T05:10:59.229Z,86.99
2023-03-29T05:11:31.690Z,86.71
2023-03-29T05:12:03.453Z,86.75
2023-03-29T05:12:35.239Z,86.72
2023-03-29T05:13:06.846Z,86.47
2023-03-29T05:13:38.483Z,86.54
2023-03-29T05:14:10.313Z,86.94
2023-03-29T05:14:41.897Z,86.55
2023-03-29T05:15:13.524Z,86.15
2023-03-29T05:15:45.165Z,85.89
2023-03-29T05:16:16.960Z,85.67
2023-03-29T05:16:48.763Z,85.91
2023-03-29T05:17:21.610Z,85.60
2023-03-29T05:17:53.545Z,85.31
2023-03-29T05:18:25.331Z,85.00
2023-03-29T05:18:57.716Z,85.05
2023-03-29T05:19:29.361Z,84.88
2023-03-29T05:20:01.496Z,84.57
2023-03-29T05:20:33.151Z,84.20
2023-03-29T05:21:05.143Z,84.27
2023-03-29T05:21:37.093Z,83.83
2023-03-29T05:22:09.207Z,83.16
2023-03-29T05:22:40.923Z,82.99
2023-03-29T05:23:12.561Z,83.50
2023-03-29T05:23:45.060Z,83.64
2023-03-29T05:24:17.872Z,84.20
2023-03-29T05:24:50.516Z,84.40
2023-03-29T05:25:22.931Z,84.42
2023-03-29T05:25:54.676Z,84.57
2023-03-29T05:26:26.605Z,84.97
2023-03-29T05:26:58.300Z,85.82
2023-03-29T05:27:29.927Z,85.67
2023-03-29T05:28:02.423Z,85.31
2023-03-29T05:28:34.037Z,84.69
2023-03-29T05:29:07.328Z,84.65
2023-03-29T05:29:39.032Z,84.73
2023-03-29T05:30:11.689Z,85.32
2023-03-29T05:30:43.427Z,85.67
2023-03-29T05:31:16.980Z,86.63
2023-03-29T05:31:49.540Z,85.77
2023-03-29T05:32:21.145Z,84.87
2023-03-29T05:32:53.035Z,84.79
2023-03-29T05:33:24.731Z,84.72
2023-03-29T05:33:57.941Z,84.71
2023-03-29T05:34:31.478Z,85.01
2023-03-29T05:35:03.177Z,85.37
2023-03-29T05:35:36.076Z,85.06
2023-03-29T05:36:11.028Z,84.87
2023-03-29T05:36:42.920Z,85.24
2023-03-29T05:37:14.494Z,86.09
2023-03-29T05:37:47.387Z,86.05
2023-03-29T05:38:19.028Z,87.12
2023-03-29T05:38:50.916Z,87.93
2023-03-29T05:39:23.508Z,88.44
2023-03-29T05:39:55.243Z,87.76
2023-03-29T05:40:37.925Z,87.63
2023-03-29T05:41:10.846Z,87.78
2023-03-29T05:41:42.426Z,88.64
2023-03-29T05:42:15.631Z,89.03
2023-03-29T05:42:47.287Z,88.99
2023-03-29T05:43:18.929Z,88.08
2023-03-29T05:43:50.725Z,88.16
2023-03-29T05:44:22.417Z,88.04
2023-03-29T05:44:55.242Z,87.84
2023-03-29T05:45:29.095Z,88.11
2023-03-29T05:46:00.922Z,87.95
2023-03-29T05:46:32.692Z,87.73
2023-03-29T05:47:04.307Z,87.35
2023-03-29T05:47:36.227Z,87.39
2023-03-29T05:48:08.979Z,87.60
2023-03-29T05:48:40.865Z,87.70
2023-03-29T05:49:12.611Z,87.26
2023-03-29T05:49:44.217Z,86.95
2023-03-29T05:50:15.947Z,86.51
2023-03-29T05:50:49.077Z,86.44
2023-03-29T05:51:24.404Z,86.59
2023-03-29T05:51:57.134Z,86.26
2023-03-29T05:52:28.912Z,85.82
2023-03-29T05:53:00.595Z,85.31
2023-03-29T05:53:32.393Z,84.69
2023-03-29T05:54:04.274Z,84.67
2023-03-29T05:54:35.880Z,84.42
2023-03-29T05:55:08.129Z,84.46
2023-03-29T05:55:39.808Z,84.46
2023-03-29T05:56:11.869Z,84.34
2023-03-29T05:56:43.751Z,83.96
2023-03-29T05:57:15.470Z,83.65
2023-03-29T05:57:47.704Z,83.43
2023-03-29T05:58:21.531Z,83.74
2023-03-29T05:58:56.136Z,83.75
2023-03-29T05:59:29.797Z,83.22
2023-03-29T06:00:02.125Z,82.86
2023-03-29T06:00:37.067Z,83.34
2023-03-29T06:01:13.833Z,83.71
2023-03-29T06:01:48.698Z,83.51
2023-03-29T06:02:20.449Z,83.32
2023-03-29T06:03:03.752Z,83.46
2023-03-29T06:03:42.310Z,82.96
2023-03-29T06:04:15.447Z,82.70
2023-03-29T06:04:47.145Z,83.28
2023-03-29T06:05:20.181Z,83.99
2023-03-29T06:06:04.956Z,84.13
2023-03-29T06:06:36.556Z,84.43
2023-03-29T06:07:08.814Z,83.84
2023-03-29T06:07:40.429Z,83.57
2023-03-29T06:08:12.881Z,83.39
2023-03-29T06:08:45.202Z,83.80
2023-03-29T06:09:16.832Z,83.85
2023-03-29T06:09:48.558Z,83.83
2023-03-29T06:10:20.660Z,83.45
2023-03-29T06:11:05.899Z,83.56
2023-03-29T06:11:37.728Z,83.50
2023-03-29T06:12:09.707Z,83.09
2023-03-29T06:12:41.947Z,82.93
2023-03-29T06:13:13.544Z,82.54
2023-03-29T06:13:45.202Z,82.12
2023-03-29T06:14:17.371Z,82.83
2023-03-29T06:14:49.315Z,82.84
2023-03-29T06:15:22.140Z,82.55
2023-03-29T06:15:53.782Z,82.13
2023-03-29T06:16:25.985Z,81.78
2023-03-29T06:16:57.623Z,81.53
2023-03-29T06:17:29.291Z,81.50
2023-03-29T06:18:04.692Z,81.25
2023-03-29T06:18:38.207Z,80.99
2023-03-29T06:19:09.809Z,81.27
2023-03-29T06:19:41.415Z,81.45
2023-03-29T06:20:14.034Z,81.50
2023-03-29T06:20:49.484Z,80.94
2023-03-29T06:21:22.002Z,80.23
2023-03-29T06:21:54.343Z,80.32
2023-03-29T06:22:26.191Z,80.77
2023-03-29T06:22:58.439Z,80.44
2023-03-29T06:23:30.786Z,79.96
2023-03-29T06:24:02.514Z,80.00
2023-03-29T06:24:34.168Z,79.55
2023-03-29T06:25:07.221Z,79.28
2023-03-29T06:25:39.566Z,79.37
2023-03-29T06:26:11.173Z,79.27
2023-03-29T06:26:42.825Z,79.86
2023-03-29T06:27:14.433Z,79.84
2023-03-29T06:27:49.973Z,79.31
2023-03-29T06:28:22.761Z,78.01
2023-03-29T06:28:54.386Z,77.88
2023-03-29T06:29:26.017Z,77.82
2023-03-29T06:29:57.610Z,77.56
2023-03-29T06:30:29.195Z,77.13
2023-03-29T06:31:03.779Z,76.84
2023-03-29T06:31:36.674Z,76.93
2023-03-29T06:32:08.383Z,76.15
2023-03-29T06:32:40.226Z,75.71
2023-03-29T06:33:12.910Z,75.70
2023-03-29T06:33:44.556Z,76.31
2023-03-29T06:34:17.414Z,75.77
2023-03-29T06:34:49.745Z,75.21
2023-03-29T06:35:21.886Z,74.84
2023-03-29T06:35:53.588Z,75.20
2023-03-29T06:36:25.929Z,75.77
2023-03-29T06:36:57.746Z,76.10
2023-03-29T06:37:29.419Z,75.23
2023-03-29T06:38:01.539Z,74.40
2023-03-29T06:38:34.084Z,73.50
2023-03-29T06:39:08.800Z,73.43
2023-03-29T06:39:41.136Z,72.81
2023-03-29T06:40:13.291Z,72.26
2023-03-29T06:40:45.386Z,70.93
2023-03-29T06:41:17.006Z,70.15
2023-03-29T06:41:49.103Z,70.23
2023-03-29T06:42:21.937Z,70.33
2023-03-29T06:42:59.512Z,70.56
2023-03-29T06:43:33.410Z,71.02
2023-03-29T06:44:06.786Z,70.72
2023-03-29T06:44:38.396Z,70.86
2023-03-29T06:45:10.555Z,70.21
2023-03-29T06:45:42.746Z,69.80
2023-03-29T06:46:14.484Z,70.10
2023-03-29T06:46:46.527Z,70.81
2023-03-29T06:47:18.315Z,70.53
2023-03-29T06:47:50.811Z,69.55
2023-03-29T06:48:22.723Z,69.28
2023-03-29T06:48:54.378Z,69.26
2023-03-29T06:49:26.415Z,69.44
2023-03-29T06:49:58.129Z,68.93
2023-03-29T06:50:31.630Z,69.04
2023-03-29T06:51:03.587Z,69.56
2023-03-29T06:51:35.472Z,69.62
2023-03-29T06:52:07.157Z,69.63
2023-03-29T06:52:38.787Z,69.26
2023-03-29T06:53:10.554Z,68.81
2023-03-29T06:53:42.151Z,68.50
2023-03-29T06:54:13.714Z,68.56
2023-03-29T06:54:45.504Z,68.76
2023-03-29T06:55:18.469Z,68.95
2023-03-29T06:55:52.067Z,68.82
2023-03-29T06:56:23.939Z,68.73
2023-03-29T06:56:55.691Z,68.30
2023-03-29T06:57:28.641Z,68.01
2023-03-29T06:58:02.672Z,67.97
2023-03-29T06:58:35.750Z,68.77
2023-03-29T06:59:07.383Z,69.11
2023-03-29T06:59:38.984Z,69.14
2023-03-29T07:00:16.941Z,68.64
2023-03-29T07:00:48.641Z,68.67
2023-03-29T07:01:20.769Z,68.56
2023-03-29T07:01:55.427Z,68.15
2023-03-29T07:02:27.404Z,67.09
2023-03-29T07:03:00.906Z,67.39
2023-03-29T07:03:35.066Z,67.16
2023-03-29T07:04:08.957Z,67.25
2023-03-29T07:04:41.978Z,67.91
2023-03-29T07:05:14.492Z,67.95
2023-03-29T07:05:47.856Z,67.97
2023-03-29T07:06:20.578Z,67.07
2023-03-29T07:07:01.670Z,67.57
2023-03-29T07:07:53.654Z,67.34
2023-03-29T07:08:31.273Z,67.94
2023-03-29T07:09:06.653Z,67.21
2023-03-29T07:09:40.031Z,67.27
2023-03-29T07:10:12.906Z,67.62
2023-03-29T07:10:47.593Z,66.45
2023-03-29T07:11:20.426Z,67.05
2023-03-29T07:11:52.101Z,66.92
2023-03-29T07:12:23.705Z,67.19
2023-03-29T07:12:55.532Z,66.36
2023-03-29T07:13:27.734Z,65.66
2023-03-29T07:13:59.590Z,65.81
2023-03-29T07:14:31.541Z,65.70
2023-03-29T07:15:04.572Z,65.19
2023-03-29T07:15:36.237Z,63.89
2023-03-29T07:16:12.769Z,64.65
2023-03-29T07:16:47.444Z,65.53
2023-03-29T07:17:19.262Z,64.22
2023-03-29T07:17:51.471Z,63.91
2023-03-29T07:18:23.329Z,63.44
2023-03-29T07:18:55.328Z,63.90
2023-03-29T07:19:30.261Z,63.51
2023-03-29T07:20:02.513Z,64.73
2023-03-29T07:20:34.411Z,63.92
2023-03-29T07:21:06.503Z,62.44